Time;durP1;ratioP1;P1;durP2;ratioP2;P2;SDS_P1;SDS_P2;PMS_P1;PMS_P2;Temp;Humidity;BMP_temperature;BMP_pressure;BME280_temperature;BME280_humidity;BME280_pressure;Samples;Min_cycle;Max_cycle;Signal;HPM_P1;HPM_P2
2023/04/25 00:01:35;;;;;;;11.00;5.10;;;;;;;18.55;30.49;99145.00;5001583;28;20063;-69
2023/04/25 00:04:02;;;;;;;11.27;5.38;;;;;;;18.54;30.76;99133.44;5001817;28;20071;-68
2023/04/25 00:06:29;;;;;;;11.70;5.30;;;;;;;18.55;30.89;99151.22;4975286;28;20050;-69
2023/04/25 00:08:56;;;;;;;17.55;5.18;;;;;;;18.35;31.33;99143.28;5010464;28;20073;-68
2023/04/25 00:11:23;;;;;;;12.50;5.25;;;;;;;18.42;31.36;99146.75;4999513;28;20167;-68
2023/04/25 00:13:50;;;;;;;22.85;5.70;;;;;;;18.51;31.38;99147.31;5015695;28;20049;-68
2023/04/25 00:16:17;;;;;;;15.10;5.95;;;;;;;18.58;31.28;99148.06;4983181;28;20049;-68
2023/04/25 00:18:43;;;;;;;11.73;4.95;;;;;;;18.38;31.54;99145.56;4982993;28;20053;-68
2023/04/25 00:21:09;;;;;;;23.48;5.53;;;;;;;18.42;31.66;99148.63;4983338;28;20045;-68
2023/04/25 00:23:36;;;;;;;11.02;5.25;;;;;;;18.36;31.79;99146.78;4983647;28;20044;-68
2023/04/25 00:26:03;;;;;;;13.70;4.90;;;;;;;18.59;31.58;99136.25;4982852;28;20057;-68
2023/04/25 00:28:30;;;;;;;13.02;5.30;;;;;;;18.60;31.55;99134.41;5014757;28;20053;-70
2023/04/25 00:30:55;;;;;;;18.40;5.75;;;;;;;18.65;31.47;99143.44;4982029;28;20045;-68
2023/04/25 00:33:21;;;;;;;24.35;5.65;;;;;;;18.56;31.40;99130.53;4999231;28;20180;-68
2023/04/25 00:35:47;;;;;;;17.60;5.25;;;;;;;18.79;31.00;99133.41;4982916;28;20072;-68
2023/04/25 00:38:13;;;;;;;8.25;4.65;;;;;;;18.72;32.03;99121.88;5030194;28;20068;-68
2023/04/25 00:40:39;;;;;;;16.48;6.00;;;;;;;18.60;33.17;99119.09;5039389;28;20045;-68
2023/04/25 00:43:06;;;;;;;17.13;5.80;;;;;;;18.64;32.90;99127.53;5023031;28;20390;-68
2023/04/25 00:45:32;;;;;;;11.75;5.35;;;;;;;18.62;32.79;99130.44;5055960;28;20052;-69
2023/04/25 00:47:58;;;;;;;14.88;5.85;;;;;;;18.37;33.57;99127.78;5039595;28;20048;-69
2023/04/25 00:50:24;;;;;;;15.75;6.10;;;;;;;18.44;33.72;99131.25;5055882;28;20126;-68
2023/04/25 00:52:50;;;;;;;16.83;6.28;;;;;;;18.41;33.96;99131.69;5039049;28;20144;-68
2023/04/25 00:55:16;;;;;;;13.40;5.70;;;;;;;18.45;34.01;99129.38;5023008;28;20457;-67
2023/04/25 00:57:43;;;;;;;14.27;5.60;;;;;;;18.48;34.11;99128.94;5022692;28;20138;-68
2023/04/25 01:00:10;;;;;;;15.38;5.95;;;;;;;18.44;34.18;99127.72;5039020;28;20064;-68
2023/04/25 01:02:37;;;;;;;21.42;6.75;;;;;;;18.38;34.50;99123.22;5022614;28;20040;-68
2023/04/25 01:05:03;;;;;;;19.52;5.78;;;;;;;18.38;34.28;99120.53;5055688;28;20135;-68
2023/04/25 01:07:31;;;;;;;12.45;5.95;;;;;;;18.40;33.94;99121.16;5033159;28;20424;-68
2023/04/25 01:09:57;;;;;;;18.52;6.07;;;;;;;18.50;34.02;99104.53;5058450;28;20044;-68
2023/04/25 01:12:24;;;;;;;13.45;6.00;;;;;;;18.53;33.89;99109.44;5034135;28;20918;-68
2023/04/25 01:14:49;;;;;;;15.85;6.30;;;;;;;18.55;33.73;99108.19;5001510;28;20151;-69
2023/04/25 01:17:17;;;;;;;10.15;5.55;;;;;;;18.54;33.88;99105.72;4985328;28;20526;-69
2023/04/25 01:19:44;;;;;;;13.95;5.28;;;;;;;18.55;33.18;99110.88;5001323;28;20059;-68
2023/04/25 01:22:14;;;;;;;19.52;5.93;;;;;;;18.73;32.70;99116.25;5033966;28;20057;-68
2023/04/25 01:24:40;;;;;;;;;;;;;;;19.04;32.48;99107.22;5017172;28;20053;-69
2023/04/25 01:27:07;;;;;;;13.43;4.80;;;;;;;18.85;32.39;99108.28;4996842;28;20010;-68
2023/04/25 01:29:33;;;;;;;9.43;4.90;;;;;;;18.81;32.21;99091.75;4996861;28;20049;-68
2023/04/25 01:31:59;;;;;;;12.43;5.28;;;;;;;18.85;31.89;99098.34;5029470;28;20392;-69
2023/04/25 01:34:25;;;;;;;11.45;4.60;;;;;;;18.93;31.75;99099.94;4981191;28;20037;-68
2023/04/25 01:36:53;;;;;;;13.13;4.80;;;;;;;19.05;31.86;99098.94;4981967;28;20049;-68
2023/04/25 01:39:19;;;;;;;11.23;5.18;;;;;;;18.98;32.07;99094.66;4981832;28;20037;-75
2023/04/25 01:41:48;;;;;;;10.30;5.15;;;;;;;19.09;32.64;99093.94;5014290;28;20447;-69
2023/04/25 01:44:14;;;;;;;14.18;4.78;;;;;;;18.88;32.76;99087.13;5015342;28;20066;-68
2023/04/25 01:46:41;;;;;;;15.25;5.43;;;;;;;18.86;32.65;99096.47;5020758;28;20091;-68
2023/04/25 01:49:07;;;;;;;12.60;5.40;;;;;;;18.82;32.99;99093.41;5004592;28;20044;-67
2023/04/25 01:51:33;;;;;;;11.70;5.90;;;;;;;18.68;33.67;99097.31;5020641;28;20052;-68
2023/04/25 01:53:59;;;;;;;14.10;5.53;;;;;;;18.53;33.64;99094.13;5020610;28;20071;-68
2023/04/25 01:56:25;;;;;;;15.55;6.15;;;;;;;18.45;34.20;99097.13;5037129;28;20044;-68
2023/04/25 01:58:51;;;;;;;20.25;6.28;;;;;;;18.31;34.55;99090.19;5050867;28;20052;-68
2023/04/25 02:01:17;;;;;;;17.75;6.32;;;;;;;18.22;34.80;99096.88;5058121;28;20431;-68
2023/04/25 02:03:54;;;;;;;23.83;6.20;;;;;;;18.14;34.78;99099.84;5061179;28;20043;-68
2023/04/25 02:06:27;;;;;;;10.52;6.05;;;;;;;18.12;34.95;99092.00;5043235;28;20100;-68
2023/04/25 02:08:56;;;;;;;11.70;5.93;;;;;;;18.14;34.99;99091.78;5041898;28;20084;-68
2023/04/25 02:11:21;;;;;;;17.65;6.55;;;;;;;18.07;35.14;99094.50;5041153;28;20051;-72
2023/04/25 02:14:08;;;;;;;18.45;6.30;;;;;;;18.15;34.97;99096.09;5076893;28;20125;-69
2023/04/25 02:16:51;;;;;;;16.05;6.82;;;;;;;18.03;35.05;99104.06;5062740;28;20052;-68
2023/04/25 02:19:17;;;;;;;20.15;6.57;;;;;;;17.94;35.23;99099.16;5041484;28;20063;-67
2023/04/25 02:21:43;;;;;;;16.52;6.43;;;;;;;17.81;35.61;99085.81;5057628;28;20063;-68
2023/04/25 02:24:10;;;;;;;18.75;6.57;;;;;;;17.84;35.78;99106.88;5041657;28;20066;-68
2023/04/25 02:26:36;;;;;;;11.77;6.13;;;;;;;17.82;35.80;99111.66;5041320;28;20074;-68
2023/04/25 02:29:07;;;;;;;18.80;6.95;;;;;;;17.73;36.00;99107.56;5059107;28;20048;-67
2023/04/25 02:31:32;;;;;;;23.25;6.53;;;;;;;17.68;35.86;99102.03;5057025;28;20044;-68
2023/04/25 02:33:58;;;;;;;20.27;6.55;;;;;;;17.63;36.22;99102.69;5057273;28;20517;-69
2023/04/25 02:36:24;;;;;;;19.25;6.88;;;;;;;17.53;36.92;99094.25;5040789;28;20394;-69
2023/04/25 02:38:53;;;;;;;19.08;7.57;;;;;;;17.50;36.93;99101.91;5040985;28;20044;-68
2023/04/25 02:41:20;;;;;;;18.42;6.78;;;;;;;17.43;37.10;99093.88;5056245;28;20047;-71
2023/04/25 02:43:47;;;;;;;17.50;6.88;;;;;;;17.45;37.18;99089.13;5040535;28;20047;-68
2023/04/25 02:46:15;;;;;;;21.15;6.72;;;;;;;17.36;37.77;99097.63;5057258;28;20048;-68
2023/04/25 02:48:41;;;;;;;22.65;7.50;;;;;;;17.40;37.72;99105.06;5057301;28;20134;-68
2023/04/25 02:51:07;;;;;;;29.98;7.82;;;;;;;17.46;37.98;99106.91;5040693;28;20454;-68
2023/04/25 02:53:33;;;;;;;20.27;6.93;;;;;;;17.36;38.26;99106.50;5040534;28;20081;-72
2023/04/25 02:55:59;;;;;;;18.08;7.28;;;;;;;17.37;38.14;99110.00;5040561;28;20063;-68
2023/04/25 02:58:26;;;;;;;22.40;8.18;;;;;;;17.32;38.44;99115.19;5073727;28;20039;-68
2023/04/25 03:00:54;;;;;;;20.55;7.30;;;;;;;17.26;38.75;99122.25;5016285;28;20049;-68
2023/04/25 03:03:21;;;;;;;28.85;7.80;;;;;;;17.14;39.00;99117.75;4984002;28;20487;-66
2023/04/25 03:05:50;;;;;;;28.00;7.85;;;;;;;17.29;39.07;99129.03;5016338;28;20118;-67
2023/04/25 03:08:18;;;;;;;17.75;7.50;;;;;;;17.22;39.05;99122.88;4984116;28;20064;-67
2023/04/25 03:10:45;;;;;;;19.88;7.75;;;;;;;17.16;39.28;99102.28;5016283;28;20041;-67
2023/04/25 03:13:13;;;;;;;27.10;8.48;;;;;;;17.10;39.52;99120.03;4984548;28;20056;-68
2023/04/25 03:15:41;;;;;;;21.13;7.45;;;;;;;17.08;39.96;99122.13;4984364;28;20060;-68
2023/04/25 03:18:07;;;;;;;26.67;7.80;;;;;;;17.16;39.77;99116.50;4999545;28;20044;-67
2023/04/25 03:20:34;;;;;;;19.55;6.97;;;;;;;17.24;40.13;99126.16;5016254;28;20041;-67
2023/04/25 03:23:00;;;;;;;13.82;6.97;;;;;;;16.99;40.51;99128.72;5003122;28;20041;-67
2023/04/25 03:25:29;;;;;;;22.20;7.25;;;;;;;17.12;41.03;99122.50;5001905;28;20681;-67
2023/04/25 03:27:55;;;;;;;15.38;6.95;;;;;;;17.07;41.01;99125.03;5018853;28;20045;-76
2023/04/25 03:30:22;;;;;;;19.10;7.35;;;;;;;17.06;41.35;99121.50;4999359;28;20057;-69
2023/04/25 03:32:48;;;;;;;16.00;6.70;;;;;;;17.22;41.06;99125.56;5001791;28;20513;-67
2023/04/25 03:35:16;;;;;;;18.92;7.32;;;;;;;17.31;40.82;99126.97;5007630;28;20502;-67
2023/04/25 03:37:45;;;;;;;18.98;7.68;;;;;;;17.34;40.77;99118.50;5023117;28;20055;-67
2023/04/25 03:40:16;;;;;;;19.35;7.90;;;;;;;17.34;41.01;99113.97;5040604;28;20530;-69
2023/04/25 03:43:05;;;;;;;19.85;7.45;;;;;;;17.42;40.87;99123.63;5025535;28;20141;-70
2023/04/25 03:45:33;;;;;;;20.85;7.85;;;;;;;17.55;40.94;99126.25;5028779;28;20637;-71
2023/04/25 03:47:59;;;;;;;18.48;7.57;;;;;;;17.48;40.84;99122.81;5009680;28;20544;-70
2023/04/25 03:50:27;;;;;;;19.10;7.93;;;;;;;17.66;40.55;99122.91;5012370;28;20059;-69
2023/04/25 03:52:53;;;;;;;19.38;7.65;;;;;;;17.70;40.40;99124.09;5029003;28;20048;-69
2023/04/25 03:55:19;;;;;;;15.43;7.70;;;;;;;17.71;40.64;99120.41;5037663;28;20110;-67
2023/04/25 03:57:45;;;;;;;20.73;8.15;;;;;;;17.66;40.80;99118.34;5039003;28;20036;-68
2023/04/25 04:00:12;;;;;;;16.33;7.82;;;;;;;17.77;40.68;99116.84;4990996;28;20075;-70
2023/04/25 04:02:41;;;;;;;19.92;7.90;;;;;;;17.77;40.67;99127.59;5076865;28;20478;-69
2023/04/25 04:05:09;;;;;;;14.38;7.30;;;;;;;17.79;40.96;99128.22;5058874;28;20036;-70
2023/04/25 04:07:39;;;;;;;19.25;7.97;;;;;;;17.89;41.17;99134.75;5060504;28;20048;-74
2023/04/25 04:10:09;;;;;;;19.02;7.68;;;;;;;17.79;41.28;99118.25;5058804;28;20519;-69
2023/04/25 04:12:39;;;;;;;14.77;7.47;;;;;;;17.69;41.25;99134.03;5043415;28;20089;-69
2023/04/25 04:15:10;;;;;;;14.88;7.25;;;;;;;17.75;41.51;99122.44;5060615;28;20066;-69
2023/04/25 04:17:35;;;;;;;17.00;7.38;;;;;;;17.72;41.61;99138.16;5043201;28;20135;-69
2023/04/25 04:20:08;;;;;;;18.23;8.32;;;;;;;17.87;41.45;99130.59;5059796;28;20060;-69
2023/04/25 04:22:36;;;;;;;12.02;7.47;;;;;;;17.84;41.34;99123.81;5059574;28;20059;-70
2023/04/25 04:25:07;;;;;;;14.90;7.90;;;;;;;17.86;40.91;99126.28;5077146;28;20379;-70
2023/04/25 04:27:55;;;;;;;15.50;7.72;;;;;;;17.81;41.07;99116.19;5065252;28;20051;-69
2023/04/25 04:30:37;;;;;;;16.98;8.10;;;;;;;17.91;41.24;99131.84;5047479;28;20387;-69
2023/04/25 04:33:08;;;;;;;14.10;8.30;;;;;;;17.94;40.94;99128.72;5059871;28;20071;-69
2023/04/25 04:35:34;;;;;;;17.77;9.18;;;;;;;17.93;40.91;99127.06;5059820;28;20040;-69
2023/04/25 04:38:01;;;;;;;18.80;8.50;;;;;;;18.08;40.70;99122.22;5034536;28;20059;-70
2023/04/25 04:40:33;;;;;;;17.00;9.13;;;;;;;18.27;40.28;99123.91;5021044;28;20056;-70
2023/04/25 04:43:18;;;;;;;14.02;8.23;;;;;;;18.55;40.07;99126.16;5029926;28;20053;-69
2023/04/25 04:45:50;;;;;;;16.75;9.20;;;;;;;18.60;39.44;99119.09;5021780;28;20045;-69
2023/04/25 04:48:34;;;;;;;23.48;9.77;;;;;;;18.73;39.21;99129.72;5012852;28;20057;-69
2023/04/25 04:51:23;;;;;;;21.15;8.82;;;;;;;18.89;39.03;99131.84;5006586;28;20037;-69
2023/04/25 04:54:02;;;;;;;13.60;9.43;;;;;;;18.81;39.03;99123.22;5014946;28;20076;-70
2023/04/25 04:56:52;;;;;;;18.90;9.70;;;;;;;18.96;39.16;99115.63;5034354;28;20057;-68
2023/04/25 04:59:45;;;;;;;21.80;10.52;;;;;;;18.96;38.73;99112.94;4997757;28;20087;-69
2023/04/25 05:02:32;;;;;;;20.95;9.23;;;;;;;19.09;38.83;99108.22;4987612;28;20053;-69
2023/04/25 05:05:17;;;;;;;21.58;9.32;;;;;;;19.10;38.49;99112.53;5028857;28;20046;-68
2023/04/25 05:08:10;;;;;;;20.30;9.73;;;;;;;19.21;38.13;99109.09;4956032;28;20059;-69
2023/04/25 05:10:54;;;;;;;24.20;10.30;;;;;;;19.34;37.71;99111.66;5031377;28;20049;-68
2023/04/25 05:13:33;;;;;;;25.42;9.82;;;;;;;19.54;37.61;99109.50;5006651;28;20063;-69
2023/04/25 05:16:25;;;;;;;21.50;9.60;;;;;;;19.68;37.20;99115.56;5038006;28;20458;-68
2023/04/25 05:18:57;;;;;;;22.77;9.65;;;;;;;19.77;37.09;99117.69;5037897;28;20063;-68
2023/04/25 05:21:31;;;;;;;29.10;9.68;;;;;;;19.91;36.78;99121.03;5023589;28;20131;-69
2023/04/25 05:24:13;;;;;;;24.20;9.90;;;;;;;20.10;36.44;99112.63;5041918;28;20125;-69
2023/04/25 05:26:58;;;;;;;22.75;9.45;;;;;;;20.37;36.21;99118.47;5040316;28;20156;-69
2023/04/25 05:29:53;;;;;;;28.95;10.00;;;;;;;20.41;35.90;99122.31;5040266;28;20056;-69
2023/04/25 05:32:30;;;;;;;24.63;9.77;;;;;;;20.48;35.91;99116.81;5037770;28;20040;-69
2023/04/25 05:34:56;;;;;;;26.67;10.93;;;;;;;20.56;35.24;99119.16;5038574;28;20080;-68
2023/04/25 05:37:32;;;;;;;27.58;9.48;;;;;;;20.76;35.06;99114.22;5024301;28;20048;-68
2023/04/25 05:40:06;;;;;;;22.67;9.57;;;;;;;20.97;34.72;99116.34;5039298;28;20238;-69
2023/04/25 05:42:56;;;;;;;20.35;10.45;;;;;;;21.14;34.59;99118.06;5044352;28;20040;-68
2023/04/25 05:45:33;;;;;;;24.75;8.60;;;;;;;20.92;33.98;99118.91;5039022;28;20101;-69
2023/04/25 05:48:28;;;;;;;25.58;9.02;;;;;;;20.96;33.94;99112.00;4976847;28;20058;-68
2023/04/25 05:51:20;;;;;;;26.55;8.55;;;;;;;21.16;34.22;99109.72;4997793;28;20149;-69
2023/04/25 05:53:58;;;;;;;20.05;7.65;;;;;;;21.21;33.63;99102.56;4964023;28;20077;-68
2023/04/25 05:56:24;;;;;;;22.00;7.40;;;;;;;21.35;33.41;99081.50;4994568;28;20616;-69
2023/04/25 05:58:52;;;;;;;37.55;7.70;;;;;;;21.58;32.97;99094.91;4994062;28;20200;-68
2023/04/25 06:01:17;;;;;;;21.85;8.10;;;;;;;21.75;32.80;99098.50;4978037;28;20143;-68
2023/04/25 06:03:44;;;;;;;19.60;8.05;;;;;;;21.86;32.29;99089.53;5010991;28;20146;-68
2023/04/25 06:06:11;;;;;;;21.60;7.20;;;;;;;22.09;32.10;99083.16;4994260;28;20042;-68
2023/04/25 06:08:38;;;;;;;16.42;6.82;;;;;;;22.09;31.57;99078.56;4988497;28;20352;-69
2023/04/25 06:11:04;;;;;;;18.65;5.95;;;;;;;22.06;31.17;99081.75;5021688;28;20340;-69
2023/04/25 06:13:31;;;;;;;16.25;6.13;;;;;;;22.27;30.71;99067.50;5021882;28;20044;-68
2023/04/25 06:15:57;;;;;;;13.00;5.78;;;;;;;22.37;30.63;99066.84;5021275;28;20487;-71
2023/04/25 06:18:23;;;;;;;20.13;6.20;;;;;;;22.50;30.27;99064.59;5037752;28;20056;-68
2023/04/25 06:20:49;;;;;;;17.63;5.78;;;;;;;22.63;29.76;99064.25;5021431;28;20113;-68
2023/04/25 06:23:18;;;;;;;18.35;5.68;;;;;;;22.73;29.48;99067.13;5021774;28;20450;-68
2023/04/25 06:26:02;;;;;;;10.85;5.10;;;;;;;22.89;28.87;99062.75;5040228;28;20048;-68
2023/04/25 06:28:29;;;;;;;20.20;4.95;;;;;;;23.04;28.55;99066.47;5038396;28;20055;-68
2023/04/25 06:30:55;;;;;;;16.98;5.47;;;;;;;23.14;28.54;99069.28;5037538;28;20561;-68
2023/04/25 06:33:24;;;;;;;19.02;5.38;;;;;;;23.06;28.62;99058.88;5037668;28;20040;-69
2023/04/25 06:35:51;;;;;;;18.30;5.15;;;;;;;23.28;28.50;99062.44;5037907;28;20032;-69
2023/04/25 06:38:21;;;;;;;15.38;4.88;;;;;;;23.31;28.30;99068.44;5054209;28;20040;-69
2023/04/25 06:40:51;;;;;;;14.60;5.30;;;;;;;23.53;27.93;99058.38;5022040;28;20040;-69
2023/04/25 06:43:18;;;;;;;15.90;5.32;;;;;;;23.74;27.88;99066.44;5038043;28;20485;-68
2023/04/25 06:46:02;;;;;;;12.82;4.55;;;;;;;23.99;27.35;99063.19;5056874;28;20044;-68
2023/04/25 06:48:30;;;;;;;13.98;4.40;;;;;;;24.31;26.76;99066.72;5021973;28;20045;-69
2023/04/25 06:50:57;;;;;;;12.75;3.42;;;;;;;24.54;25.94;99080.72;5037542;28;20047;-68
2023/04/25 06:53:24;;;;;;;10.02;3.53;;;;;;;24.65;25.75;99074.31;5037497;28;20036;-69
2023/04/25 06:55:58;;;;;;;11.75;3.65;;;;;;;24.48;25.58;99070.09;5024078;28;20051;-69
2023/04/25 06:58:29;;;;;;;13.02;3.88;;;;;;;24.44;25.38;99068.97;5026268;28;20072;-70
2023/04/25 07:01:11;;;;;;;9.93;3.20;;;;;;;24.73;24.95;99081.16;5043622;28;20051;-69
2023/04/25 07:03:37;;;;;;;10.35;3.72;;;;;;;24.88;24.59;99068.47;5025214;28;20056;-69
2023/04/25 07:06:08;;;;;;;;;;;;;;;25.53;23.79;99080.72;5074954;28;20036;-69
2023/04/25 07:08:34;;;;;;;9.57;2.95;;;;;;;24.80;24.31;99066.25;5041637;28;19916;-68
2023/04/25 07:11:01;;;;;;;11.40;3.00;;;;;;;24.89;24.30;99061.16;5025494;28;20066;-69
2023/04/25 07:13:28;;;;;;;13.57;2.70;;;;;;;25.31;23.88;99072.72;5041389;28;20036;-69
2023/04/25 07:15:53;;;;;;;5.18;2.50;;;;;;;25.73;23.55;99075.31;5023472;28;20040;-69
2023/04/25 07:18:20;;;;;;;8.60;2.55;;;;;;;26.36;22.35;99072.94;5007556;28;20474;-68
2023/04/25 07:20:47;;;;;;;9.85;2.95;;;;;;;27.57;21.42;99078.09;5007418;28;20121;-69
2023/04/25 07:23:13;;;;;;;9.10;2.85;;;;;;;29.26;19.55;99072.22;5007055;28;20505;-69
2023/04/25 07:25:39;;;;;;;8.98;2.50;;;;;;;30.54;17.47;99079.09;5039841;28;20094;-69
2023/04/25 07:28:06;;;;;;;11.75;2.78;;;;;;;32.18;16.59;99067.75;5040035;28;20155;-70
2023/04/25 07:30:32;;;;;;;5.50;2.33;;;;;;;34.01;14.59;99066.72;5007164;28;20056;-68
2023/04/25 07:32:57;;;;;;;8.52;2.40;;;;;;;33.89;14.20;99072.88;5007260;28;20052;-69
2023/04/25 07:35:24;;;;;;;12.88;2.65;;;;;;;35.25;13.67;99068.19;5039680;28;20148;-70
2023/04/25 07:37:51;;;;;;;15.50;3.80;;;;;;;36.42;12.61;99063.31;5006963;28;20040;-69
2023/04/25 07:40:19;;;;;;;8.38;2.20;;;;;;;36.82;11.90;99083.72;5007386;28;20045;-69
2023/04/25 07:42:52;;;;;;;9.93;2.42;;;;;;;36.25;11.98;99077.25;5008538;28;20106;-69
2023/04/25 07:45:26;;;;;;;6.15;2.50;;;;;;;34.54;13.07;99094.72;5008823;28;20036;-69
2023/04/25 07:47:53;;;;;;;13.02;2.55;;;;;;;34.40;13.35;99074.81;5039037;28;20053;-70
2023/04/25 07:50:19;;;;;;;7.63;2.53;;;;;;;33.72;14.22;99077.53;5024172;28;20036;-70
2023/04/25 07:52:46;;;;;;;12.77;3.15;;;;;;;34.47;13.92;99069.63;5024346;28;20044;-69
2023/04/25 07:55:18;;;;;;;9.38;2.63;;;;;;;35.02;12.55;99075.13;5041588;28;20071;-69
2023/04/25 07:58:08;;;;;;;4.63;2.30;;;;;;;34.35;13.21;99069.44;5030466;28;20041;-70
2023/04/25 08:00:37;;;;;;;8.63;2.25;;;;;;;36.20;12.32;99081.06;5056898;28;20055;-69
2023/04/25 08:03:26;;;;;;;4.40;2.40;;;;;;;36.36;11.89;99067.44;5044911;28;20089;-70
2023/04/25 08:05:53;;;;;;;8.20;2.33;;;;;;;37.56;11.48;99064.84;5024053;28;20095;-69
2023/04/25 08:08:20;;;;;;;8.30;2.28;;;;;;;40.25;9.91;99067.59;5023004;28;20434;-69
2023/04/25 08:10:47;;;;;;;7.60;2.05;;;;;;;42.22;8.60;99059.72;5023771;28;20068;-71
2023/04/25 08:13:15;;;;;;;9.98;2.30;;;;;;;43.46;7.49;99064.56;5024206;28;20044;-72
2023/04/25 08:15:41;;;;;;;8.82;2.22;;;;;;;43.02;7.77;99057.00;5040031;28;20071;-70
2023/04/25 08:18:08;;;;;;;10.05;2.40;;;;;;;44.50;7.03;99041.09;5056353;28;20044;-69
2023/04/25 08:20:34;;;;;;;6.95;2.15;;;;;;;43.45;7.45;99060.94;5040102;28;20391;-70
2023/04/25 08:23:02;;;;;;;4.90;2.17;;;;;;;40.93;8.60;99070.50;5035181;28;20064;-70
2023/04/25 08:25:43;;;;;;;6.25;2.28;;;;;;;38.63;10.03;99037.91;5035449;28;20049;-70
2023/04/25 08:28:11;;;;;;;5.93;2.13;;;;;;;39.57;9.85;99022.00;5035297;28;20384;-73
2023/04/25 08:30:38;;;;;;;8.80;2.30;;;;;;;41.28;8.76;99040.47;5019294;28;20064;-71
2023/04/25 08:33:06;;;;;;;6.10;1.90;;;;;;;41.96;8.28;99040.28;5019223;28;20383;-71
2023/04/25 08:35:59;;;;;;;3.30;1.85;;;;;;;38.88;9.15;99037.72;5020173;28;20460;-69
2023/04/25 08:38:26;;;;;;;8.13;1.75;;;;;;;36.92;10.79;99033.47;5035153;28;20478;-69
2023/04/25 08:40:55;;;;;;;5.10;1.92;;;;;;;35.30;12.00;99015.53;5018667;28;20048;-70
2023/04/25 08:43:23;;;;;;;6.93;2.42;;;;;;;34.12;13.19;99004.63;5018428;28;20080;-70
2023/04/25 08:45:51;;;;;;;4.88;1.95;;;;;;;34.46;13.24;98996.25;5035362;28;20045;-70
2023/04/25 08:48:40;;;;;;;8.90;2.30;;;;;;;34.32;13.08;99003.09;5035092;28;20087;-69
2023/04/25 08:51:08;;;;;;;7.32;2.00;;;;;;;33.10;14.18;99004.50;5018415;28;20076;-69
2023/04/25 08:53:34;;;;;;;5.53;2.20;;;;;;;32.12;14.70;99003.81;5052347;28;20044;-69
2023/04/25 08:56:03;;;;;;;12.60;2.38;;;;;;;31.17;15.14;99015.09;5023519;28;20601;-69
2023/04/25 08:58:34;;;;;;;9.43;2.10;;;;;;;29.99;16.20;99003.31;5024299;28;20041;-69
2023/04/25 09:01:00;;;;;;;4.18;2.05;;;;;;;29.63;16.67;98999.50;5022672;28;20040;-68
2023/04/25 09:03:28;;;;;;;10.43;1.98;;;;;;;30.59;15.98;98989.38;5023335;28;20050;-69
2023/04/25 09:05:56;;;;;;;3.45;1.70;;;;;;;33.17;14.06;99005.66;5039289;28;20439;-69
2023/04/25 09:08:21;;;;;;;4.18;2.08;;;;;;;34.12;13.20;99010.91;5022618;28;20097;-69
2023/04/25 09:10:48;;;;;;;6.80;2.15;;;;;;;35.26;12.00;99001.59;5001677;28;20182;-69
2023/04/25 09:13:15;;;;;;;6.82;2.17;;;;;;;34.99;11.24;98981.94;4981994;28;20483;-70
2023/04/25 09:16:04;;;;;;;2.83;1.70;;;;;;;36.30;10.51;98991.34;4983072;28;20053;-69
2023/04/25 09:18:50;;;;;;;3.58;1.70;;;;;;;38.31;9.58;99000.16;4986721;28;20053;-69
2023/04/25 09:21:22;;;;;;;3.10;1.60;;;;;;;40.38;7.81;99000.66;4982553;28;20084;-70
2023/04/25 09:23:51;;;;;;;3.50;1.60;;;;;;;41.19;7.28;98988.94;4966212;28;20057;-70
2023/04/25 09:26:19;;;;;;;4.43;1.63;;;;;;;40.17;8.04;98987.91;4982702;28;20073;-69
2023/04/25 09:28:47;;;;;;;6.47;1.80;;;;;;;36.12;10.04;98979.63;4983033;28;20064;-69
2023/04/25 09:31:24;;;;;;;4.20;1.75;;;;;;;34.71;11.35;98958.69;4982385;28;20085;-69
2023/04/25 09:34:00;;;;;;;11.57;1.88;;;;;;;36.49;10.67;98966.72;4966158;28;20052;-69
2023/04/25 09:36:29;;;;;;;2.00;1.58;;;;;;;39.19;8.88;98960.75;4982516;28;20391;-69
2023/04/25 09:39:15;;;;;;;4.40;1.75;;;;;;;41.69;7.45;98972.53;4997823;28;20072;-74
2023/04/25 09:41:43;;;;;;;8.98;1.85;;;;;;;41.44;7.23;98996.47;4966655;28;20100;-70
2023/04/25 09:44:12;;;;;;;6.03;1.85;;;;;;;38.51;8.51;98963.00;5023844;28;20141;-69
2023/04/25 09:46:41;;;;;;;6.97;2.00;;;;;;;36.90;9.96;98955.47;5038594;28;20051;-70
2023/04/25 09:49:14;;;;;;;9.95;1.98;;;;;;;36.65;10.07;98964.88;5039478;28;20377;-69
2023/04/25 09:52:04;;;;;;;6.90;1.75;;;;;;;37.70;9.34;98962.75;5027979;28;20060;-70
2023/04/25 09:54:48;;;;;;;6.57;1.80;;;;;;;38.38;9.23;98953.16;5054718;28;20036;-73
2023/04/25 09:57:23;;;;;;;4.57;1.73;;;;;;;36.53;10.23;98965.69;5023422;28;20375;-70
2023/04/25 09:59:52;;;;;;;8.38;1.90;;;;;;;33.88;12.34;98940.91;5022086;28;20435;-70
2023/04/25 10:02:23;;;;;;;7.28;2.13;;;;;;;32.73;13.23;98923.31;5021403;28;20040;-69
2023/04/25 10:04:54;;;;;;;5.95;1.88;;;;;;;34.45;11.94;98945.00;5022515;28;20040;-70
2023/04/25 10:07:27;;;;;;;4.45;1.88;;;;;;;36.69;10.35;98935.38;5022672;28;20037;-70
2023/04/25 10:10:04;;;;;;;5.35;1.67;;;;;;;38.14;9.36;98946.94;5038383;28;20056;-70
2023/04/25 10:12:36;;;;;;;3.22;1.50;;;;;;;40.07;8.57;98951.53;5038642;28;20132;-70
2023/04/25 10:15:06;;;;;;;9.43;1.67;;;;;;;41.35;7.55;98954.13;5038640;28;20087;-70
2023/04/25 10:17:34;;;;;;;3.92;1.58;;;;;;;41.03;7.83;98943.66;5038294;28;20052;-70
2023/04/25 10:20:05;;;;;;;4.20;1.77;;;;;;;42.08;7.02;98952.69;5021283;28;20052;-70
2023/04/25 10:22:34;;;;;;;3.55;1.45;;;;;;;40.38;7.98;98945.75;5054750;28;20131;-70
2023/04/25 10:25:03;;;;;;;5.28;1.35;;;;;;;37.43;9.66;98924.69;5021577;28;20139;-69
2023/04/25 10:27:32;;;;;;;2.83;1.42;;;;;;;35.53;10.97;98911.91;5022344;28;20044;-69
2023/04/25 10:30:06;;;;;;;5.20;1.77;;;;;;;34.59;11.73;98912.50;5021164;28;20048;-69
2023/04/25 10:32:33;;;;;;;4.97;1.48;;;;;;;36.46;10.65;98912.88;5070769;28;20091;-71
2023/04/25 10:35:19;;;;;;;6.30;1.55;;;;;;;37.40;9.89;98921.84;5037710;28;20047;-69
2023/04/25 10:38:11;;;;;;;5.20;1.40;;;;;;;36.95;10.01;98919.25;5021416;28;20040;-70
2023/04/25 10:40:36;;;;;;;4.35;1.58;;;;;;;34.92;11.04;98924.50;5037678;28;20086;-69
2023/04/25 10:43:30;;;;;;;5.85;1.38;;;;;;;34.53;11.42;98899.22;5020924;28;20049;-70
2023/04/25 10:45:57;;;;;;;6.63;1.50;;;;;;;35.03;11.22;98884.34;5037543;28;20060;-70
2023/04/25 10:48:30;;;;;;;1.95;1.20;;;;;;;36.24;10.32;98898.66;5020992;28;20051;-69
2023/04/25 10:51:09;;;;;;;4.25;1.33;;;;;;;37.22;9.43;98891.63;5037719;28;20060;-69
2023/04/25 10:53:35;;;;;;;9.50;1.53;;;;;;;38.05;8.80;98890.81;5037475;28;20118;-71
2023/04/25 10:56:12;;;;;;;6.18;1.80;;;;;;;38.32;9.17;98901.06;5037390;28;20482;-69
2023/04/25 10:58:43;;;;;;;2.38;1.40;;;;;;;39.35;8.70;98886.47;5021110;28;20044;-69
2023/04/25 11:01:09;;;;;;;2.13;1.48;;;;;;;36.90;9.69;98892.59;5000021;28;20621;-70
2023/04/25 11:03:43;;;;;;;8.55;1.60;;;;;;;34.37;11.48;98898.94;4983887;28;20060;-69
2023/04/25 11:06:22;;;;;;;3.55;1.60;;;;;;;33.29;12.71;98875.66;4984094;28;20055;-70
2023/04/25 11:08:50;;;;;;;5.28;1.70;;;;;;;31.78;13.60;98882.75;5000310;28;20049;-69
2023/04/25 11:11:18;;;;;;;1.60;1.40;;;;;;;30.97;14.40;98864.66;5000478;28;20599;-69
2023/04/25 11:13:48;;;;;;;5.97;1.60;;;;;;;30.61;14.72;98862.97;5000207;28;20045;-69
2023/04/25 11:16:14;;;;;;;8.88;1.60;;;;;;;29.53;15.86;98858.16;4984008;28;20094;-70
2023/04/25 11:18:44;;;;;;;7.53;1.85;;;;;;;29.75;15.78;98852.06;5016297;28;20604;-69
2023/04/25 11:21:11;;;;;;;12.07;1.98;;;;;;;30.11;15.44;98844.78;5000173;28;20049;-69
2023/04/25 11:23:37;;;;;;;5.30;1.23;;;;;;;30.32;15.16;98838.63;5000302;28;20059;-70
2023/04/25 11:26:04;;;;;;;4.15;1.60;;;;;;;30.66;15.26;98844.47;4983940;28;20053;-69
2023/04/25 11:28:31;;;;;;;7.70;2.03;;;;;;;30.94;14.54;98848.81;5000127;28;20041;-69
2023/04/25 11:30:57;;;;;;;8.55;2.13;;;;;;;30.35;15.09;98840.78;4977826;28;20054;-68
2023/04/25 11:33:24;;;;;;;6.22;2.60;;;;;;;29.70;15.75;98838.44;5017969;28;20503;-70
2023/04/25 11:35:53;;;;;;;4.93;1.92;;;;;;;29.43;16.36;98844.66;5000136;28;20059;-70
2023/04/25 11:38:20;;;;;;;8.55;1.90;;;;;;;28.80;16.65;98827.03;5016441;28;20071;-69
2023/04/25 11:40:51;;;;;;;6.72;1.70;;;;;;;29.50;16.46;98824.00;5016586;28;20045;-69
2023/04/25 11:43:18;;;;;;;9.27;1.80;;;;;;;29.83;15.68;98827.50;5003064;28;20049;-69
2023/04/25 11:45:47;;;;;;;3.05;1.50;;;;;;;30.26;15.59;98823.41;5035598;28;20056;-70